createdAt,value
2022-11-24T00:10:55.652Z,82
2022-11-24T00:26:07.988Z,82
2022-11-24T00:41:17.171Z,82.2
2022-11-24T00:56:26.568Z,82.4
2022-11-24T01:11:36.311Z,82.5
2022-11-24T01:26:45.720Z,82.5
2022-11-24T01:41:55.583Z,82.7
2022-11-24T01:57:07.894Z,82.8
2022-11-24T02:12:17.467Z,82.9
2022-11-24T02:27:26.717Z,82.8
2022-11-24T02:42:35.783Z,82.9
2022-11-24T02:57:45.194Z,82.9
2022-11-24T03:12:55.045Z,82.9
2022-11-24T03:28:04.701Z,82.8
2022-11-24T03:43:14.365Z,82.8
2022-11-24T03:58:24.232Z,82.6
2022-11-24T04:13:33.904Z,82.5
2022-11-24T04:28:43.412Z,82.5
2022-11-24T04:43:53.161Z,82.4
2022-11-24T04:59:09.144Z,82.8
2022-11-24T05:14:18.780Z,82.8
2022-11-24T05:29:28.095Z,82.9
2022-11-24T05:44:37.566Z,83.1
2022-11-24T05:59:47.130Z,83.3
2022-11-24T06:14:56.318Z,83.5
2022-11-24T06:30:07.971Z,83.6
2022-11-24T06:45:17.582Z,83.6
2022-11-24T07:00:27.228Z,83.6
2022-11-24T07:15:36.825Z,83.6
2022-11-24T07:30:46.526Z,83.5
2022-11-24T07:45:57.715Z,83.3
2022-11-24T08:01:08.397Z,83
2022-11-24T08:16:18.285Z,83.1
2022-11-24T08:31:28.546Z,83
2022-11-24T08:46:39.471Z,82.7
2022-11-24T09:01:50.549Z,82.5
2022-11-24T09:17:01.092Z,82.5
2022-11-24T09:32:11.058Z,82.4
2022-11-24T09:47:20.557Z,82.5
2022-11-24T10:02:30.116Z,82.3
2022-11-24T10:17:39.162Z,82.1
2022-11-24T10:32:48.948Z,82.2
2022-11-24T10:47:58.765Z,81.6
2022-11-24T11:03:09.061Z,81.5
2022-11-24T11:18:18.332Z,81.7
2022-11-24T11:34:25.203Z,81.6
2022-11-24T11:49:45.936Z,81.5
2022-11-24T12:04:55.648Z,81
2022-11-24T12:20:06.334Z,81
2022-11-24T12:35:16.310Z,80.8
2022-11-24T12:50:25.655Z,81.4
2022-11-24T13:05:35.009Z,81.7
2022-11-24T13:20:44.267Z,82
2022-11-24T13:35:53.680Z,82.1
2022-11-24T13:51:03.180Z,82.1
2022-11-24T14:06:12.627Z,82.2
2022-11-24T14:21:23.321Z,82.1
2022-11-24T14:36:32.892Z,82.4
2022-11-24T14:51:42.254Z,82.4
2022-11-24T15:06:51.590Z,83.3
2022-11-24T15:22:01.377Z,82.7
2022-11-24T15:37:11.330Z,82.8
2022-11-24T15:52:20.821Z,83.1
2022-11-24T16:07:30.576Z,83.1
2022-11-24T16:22:40.202Z,83.1
2022-11-24T16:37:49.534Z,83.5
2022-11-24T16:52:58.707Z,82.8
2022-11-24T17:08:09.039Z,83.2
2022-11-24T17:23:18.893Z,83.3
2022-11-24T17:38:28.073Z,83.3
2022-11-24T17:53:37.581Z,83.3
2022-11-24T18:08:46.946Z,83.2
2022-11-24T18:23:56.149Z,83.3
2022-11-24T18:39:08.463Z,83.4
2022-11-24T18:54:18.044Z,83.8
2022-11-24T19:09:27.541Z,84
2022-11-24T19:24:37.877Z,84.2
2022-11-24T19:39:47.035Z,84.3
2022-11-24T19:54:56.184Z,84.5
2022-11-24T20:10:08.565Z,84.5
2022-11-24T20:25:18.363Z,84.6
2022-11-24T20:40:27.455Z,84.7
2022-11-24T20:55:36.589Z,84.8
2022-11-24T21:10:46.036Z,84.8
2022-11-24T21:25:55.659Z,84.8
2022-11-24T21:41:05.115Z,85
2022-11-24T21:56:14.386Z,85.1
2022-11-24T22:11:24.215Z,85.2
2022-11-24T22:26:33.756Z,85.3
2022-11-24T22:41:42.956Z,85.3
2022-11-24T22:56:51.938Z,85.2
2022-11-24T23:12:01.612Z,84.8
2022-11-24T23:27:10.510Z,84.7
2022-11-24T23:42:19.495Z,85.1
2022-11-24T23:57:28.513Z,85.1
